createdAt,value
2022-08-30T00:02:11.920Z,21.59
2022-08-30T00:04:40.203Z,21.55
2022-08-30T00:07:08.421Z,21.55
2022-08-30T00:09:36.589Z,21.55
2022-08-30T00:12:05.535Z,21.56
2022-08-30T00:14:33.830Z,21.56
2022-08-30T00:17:02.153Z,21.52
2022-08-30T00:19:32.120Z,21.53
2022-08-30T00:22:00.340Z,21.55
2022-08-30T00:24:28.919Z,21.53
2022-08-30T00:26:57.201Z,21.49
2022-08-30T00:29:25.397Z,21.47
2022-08-30T00:31:53.708Z,21.47
2022-08-30T00:34:21.858Z,21.49
2022-08-30T00:36:51.619Z,21.47
2022-08-30T00:39:19.787Z,21.38
2022-08-30T00:41:48.698Z,21.35
2022-08-30T00:44:16.970Z,21.30
2022-08-30T00:46:45.099Z,21.31
2022-08-30T00:49:14.745Z,21.29
2022-08-30T00:51:43.257Z,21.28
2022-08-30T00:54:13.680Z,21.34
2022-08-30T00:56:42.074Z,21.40
2022-08-30T00:59:10.939Z,21.46
2022-08-30T01:01:39.620Z,21.47
2022-08-30T01:04:10.345Z,21.51
2022-08-30T01:06:40.033Z,21.49
2022-08-30T01:09:09.108Z,21.46
2022-08-30T01:11:39.479Z,21.41
2022-08-30T01:14:08.415Z,21.36
2022-08-30T01:16:41.267Z,21.33
2022-08-30T01:19:20.328Z,21.29
2022-08-30T01:21:53.651Z,21.27
2022-08-30T01:24:23.638Z,21.26
2022-08-30T01:26:51.761Z,21.27
2022-08-30T01:29:24.517Z,21.25
2022-08-30T01:31:53.316Z,21.27
2022-08-30T01:34:21.648Z,21.21
2022-08-30T01:36:50.645Z,21.16
2022-08-30T01:39:20.039Z,21.10
2022-08-30T01:41:49.728Z,21.07
2022-08-30T01:44:17.998Z,21.10
2022-08-30T01:46:48.582Z,21.08
2022-08-30T01:49:26.028Z,21.08
2022-08-30T01:52:00.712Z,21.10
2022-08-30T01:54:36.600Z,21.06
2022-08-30T01:57:08.824Z,21.05
2022-08-30T01:59:37.110Z,21.03
2022-08-30T02:02:06.642Z,21.01
2022-08-30T02:04:36.846Z,20.99
2022-08-30T02:07:06.505Z,21.00
2022-08-30T02:09:34.837Z,20.99
2022-08-30T02:12:03.422Z,20.94
2022-08-30T02:14:33.342Z,20.88
2022-08-30T02:17:02.697Z,20.86
2022-08-30T02:19:31.938Z,20.84
2022-08-30T02:22:00.082Z,20.83
2022-08-30T02:24:28.645Z,20.85
2022-08-30T02:26:57.167Z,20.85
2022-08-30T02:29:26.309Z,20.83
2022-08-30T02:31:55.824Z,20.82
2022-08-30T02:34:24.145Z,20.79
2022-08-30T02:36:52.552Z,20.79
2022-08-30T02:39:20.708Z,20.77
2022-08-30T02:41:48.846Z,20.75
2022-08-30T02:44:16.983Z,20.73
2022-08-30T02:46:45.834Z,20.71
2022-08-30T02:49:33.560Z,20.71
2022-08-30T02:52:03.197Z,20.71
2022-08-30T02:54:33.336Z,20.68
2022-08-30T02:57:05.271Z,20.67
2022-08-30T02:59:37.909Z,20.66
2022-08-30T03:02:08.783Z,20.63
2022-08-30T03:04:39.274Z,20.64
2022-08-30T03:07:08.308Z,20.63
2022-08-30T03:09:36.977Z,20.62
2022-08-30T03:12:07.192Z,20.58
2022-08-30T03:14:36.729Z,20.59
2022-08-30T03:17:06.858Z,20.56
2022-08-30T03:19:42.330Z,20.55
2022-08-30T03:22:10.671Z,20.57
2022-08-30T03:24:38.787Z,20.66
2022-08-30T03:27:07.619Z,20.69
2022-08-30T03:29:36.525Z,20.66
2022-08-30T03:32:05.517Z,20.71
2022-08-30T03:34:34.089Z,20.76
2022-08-30T03:37:03.706Z,20.71
2022-08-30T03:39:32.057Z,20.76
2022-08-30T03:42:00.187Z,20.73
2022-08-30T03:44:28.472Z,20.84
2022-08-30T03:46:56.774Z,20.93
2022-08-30T03:49:25.323Z,21.14
2022-08-30T03:51:53.530Z,21.33
2022-08-30T03:54:24.762Z,21.41
2022-08-30T03:56:53.114Z,21.57
2022-08-30T03:59:21.416Z,21.81
2022-08-30T04:01:49.796Z,21.86
2022-08-30T04:04:20.889Z,22.24
2022-08-30T04:06:50.109Z,22.39
2022-08-30T04:09:19.186Z,22.71
2022-08-30T04:11:49.059Z,22.81
2022-08-30T04:14:17.330Z,23.00
2022-08-30T04:16:45.557Z,23.03
2022-08-30T04:19:13.849Z,23.09
2022-08-30T04:21:43.729Z,23.43
2022-08-30T04:24:12.470Z,23.56
2022-08-30T04:26:40.696Z,23.71
2022-08-30T04:29:11.779Z,23.70
2022-08-30T04:31:40.026Z,23.81
2022-08-30T04:34:08.250Z,23.91
2022-08-30T04:36:36.398Z,23.80
2022-08-30T04:39:05.150Z,23.93
2022-08-30T04:41:33.440Z,23.95
2022-08-30T04:44:03.823Z,24.17
2022-08-30T04:46:33.415Z,24.42
2022-08-30T04:49:01.627Z,24.84
2022-08-30T04:51:30.248Z,25.03
2022-08-30T04:53:58.377Z,25.17
2022-08-30T04:56:26.922Z,25.84
2022-08-30T04:58:56.201Z,27.07
2022-08-30T05:01:27.435Z,27.13
2022-08-30T05:03:58.699Z,26.48
2022-08-30T05:06:31.200Z,26.13
2022-08-30T05:09:00.559Z,25.61
2022-08-30T05:11:29.854Z,25.61
2022-08-30T05:13:57.971Z,25.63
2022-08-30T05:16:26.265Z,25.76
2022-08-30T05:18:55.818Z,26.16
2022-08-30T05:21:30.278Z,25.45
2022-08-30T05:24:00.854Z,25.63
2022-08-30T05:26:32.439Z,25.51
2022-08-30T05:29:00.913Z,25.58
2022-08-30T05:31:31.313Z,25.88
2022-08-30T05:34:00.085Z,25.71
2022-08-30T05:36:32.631Z,25.55
2022-08-30T05:39:01.733Z,26.23
2022-08-30T05:41:33.922Z,27.44
2022-08-30T05:44:03.897Z,28.97
2022-08-30T05:49:09.785Z,29.68
2022-08-30T05:51:42.966Z,31.35
2022-08-30T05:54:12.810Z,31.91
2022-08-30T05:56:42.249Z,31.98
2022-08-30T05:59:10.911Z,31.72
2022-08-30T06:01:41.267Z,32.94
2022-08-30T06:04:12.004Z,33.28
2022-08-30T06:06:44.325Z,32.80
2022-08-30T06:09:14.641Z,32.82
2022-08-30T06:11:43.227Z,32.02
2022-08-30T06:14:11.538Z,32.23
2022-08-30T06:16:41.059Z,32.99
2022-08-30T06:19:11.161Z,31.78
2022-08-30T06:21:42.025Z,31.27
2022-08-30T06:24:12.144Z,32.45
2022-08-30T06:26:42.071Z,32.68
2022-08-30T06:29:11.757Z,33.01
2022-08-30T06:31:40.562Z,32.99
2022-08-30T06:34:08.956Z,33.47
2022-08-30T06:36:38.693Z,33.91
2022-08-30T06:39:09.198Z,34.51
2022-08-30T06:41:40.090Z,34.33
2022-08-30T06:44:09.151Z,34.54
2022-08-30T06:46:39.346Z,33.65
2022-08-30T06:49:11.422Z,32.96
2022-08-30T06:51:41.268Z,33.89
2022-08-30T06:54:12.387Z,33.89
2022-08-30T06:56:48.693Z,34.21
2022-08-30T06:59:27.012Z,34.63
2022-08-30T07:01:55.724Z,34.66
2022-08-30T07:04:24.468Z,34.16
2022-08-30T07:06:53.382Z,33.79
2022-08-30T07:09:23.299Z,34.03
2022-08-30T07:11:52.082Z,34.29
2022-08-30T07:14:21.102Z,33.95
2022-08-30T07:16:51.049Z,33.44
2022-08-30T07:19:21.484Z,33.43
2022-08-30T07:21:50.635Z,32.47
2022-08-30T07:24:27.183Z,31.94
2022-08-30T07:26:55.566Z,31.86
2022-08-30T07:29:23.778Z,30.96
2022-08-30T07:31:51.966Z,30.69
2022-08-30T07:34:22.364Z,30.13
2022-08-30T07:36:51.958Z,29.85
2022-08-30T07:39:20.173Z,29.90
2022-08-30T07:41:50.938Z,29.75
2022-08-30T07:44:19.462Z,29.50
2022-08-30T07:46:53.295Z,29.58
2022-08-30T07:49:21.517Z,29.00
2022-08-30T07:51:49.589Z,29.01
2022-08-30T07:54:17.837Z,29.35
2022-08-30T07:56:45.978Z,28.84
2022-08-30T07:59:15.582Z,29.14
2022-08-30T08:01:43.975Z,28.56
2022-08-30T08:04:12.399Z,28.60
2022-08-30T08:06:41.272Z,28.74
2022-08-30T08:09:09.691Z,29.07
2022-08-30T08:11:39.958Z,29.13
2022-08-30T08:14:08.615Z,29.05
2022-08-30T08:16:39.201Z,29.34
2022-08-30T08:19:09.438Z,29.35
2022-08-30T08:21:38.389Z,29.68
2022-08-30T08:24:07.611Z,29.86
2022-08-30T08:26:37.119Z,30.01
2022-08-30T08:29:06.663Z,29.83
2022-08-30T08:31:35.028Z,29.90
2022-08-30T08:34:06.435Z,30.01
2022-08-30T08:36:36.248Z,30.19
2022-08-30T08:39:07.736Z,29.79
2022-08-30T08:41:46.807Z,29.73
2022-08-30T08:44:22.852Z,30.10
2022-08-30T08:46:58.147Z,30.39
2022-08-30T08:49:28.254Z,30.24
2022-08-30T08:52:14.500Z,30.41
2022-08-30T08:54:48.190Z,30.13
2022-08-30T08:57:17.747Z,30.04
2022-08-30T08:59:48.679Z,29.98
2022-08-30T09:02:26.037Z,30.15
2022-08-30T09:05:01.451Z,30.19
2022-08-30T09:07:33.994Z,30.36
2022-08-30T09:10:02.296Z,30.43
2022-08-30T09:12:30.629Z,30.29
2022-08-30T09:15:05.606Z,30.51
2022-08-30T09:17:51.301Z,30.27
2022-08-30T09:20:33.039Z,30.14
2022-08-30T09:23:12.717Z,29.98
2022-08-30T09:25:52.129Z,30.07
2022-08-30T09:28:24.702Z,30.05
2022-08-30T09:31:07.721Z,29.97
2022-08-30T09:33:39.499Z,30.06
2022-08-30T09:36:26.577Z,30.02
2022-08-30T09:39:03.719Z,30.01
2022-08-30T09:41:40.415Z,29.88
2022-08-30T09:44:15.378Z,29.72
2022-08-30T09:46:49.880Z,29.65
2022-08-30T09:49:37.909Z,29.59
2022-08-30T09:52:16.997Z,29.61
2022-08-30T09:54:56.648Z,29.51
2022-08-30T09:57:34.384Z,29.64
2022-08-30T10:00:07.512Z,29.50
2022-08-30T10:02:54.002Z,29.50
2022-08-30T10:05:30.918Z,29.35
2022-08-30T10:08:12.774Z,29.43
2022-08-30T10:10:51.722Z,29.53
2022-08-30T10:13:49.276Z,29.72
2022-08-30T10:16:30.772Z,29.72
2022-08-30T10:19:07.292Z,29.62
2022-08-30T10:21:43.728Z,29.65
2022-08-30T10:24:20.738Z,29.32
2022-08-30T10:26:54.182Z,29.43
2022-08-30T10:29:29.549Z,29.54
2022-08-30T10:32:04.823Z,29.50
2022-08-30T10:34:38.158Z,29.49
2022-08-30T10:37:10.997Z,29.53
2022-08-30T10:39:47.516Z,28.86
2022-08-30T10:42:21.849Z,28.82
2022-08-30T10:44:56.698Z,28.52
2022-08-30T10:47:36.152Z,28.63
2022-08-30T10:50:15.305Z,28.44
2022-08-30T10:52:51.621Z,28.51
2022-08-30T10:55:25.522Z,28.57
2022-08-30T10:57:54.024Z,28.27
2022-08-30T11:00:28.269Z,28.06
2022-08-30T11:03:46.807Z,28.17
2022-08-30T11:06:22.900Z,28.48
2022-08-30T11:09:12.869Z,28.36
2022-08-30T11:11:59.237Z,27.93
2022-08-30T11:14:28.234Z,28.13
2022-08-30T11:17:00.494Z,28.17
2022-08-30T11:19:35.919Z,27.93
2022-08-30T11:22:14.871Z,28.16
2022-08-30T11:25:02.044Z,28.24
2022-08-30T11:27:52.718Z,28.38
2022-08-30T11:30:49.904Z,28.26
2022-08-30T11:33:42.274Z,27.81
2022-08-30T11:37:09.708Z,28.02
2022-08-30T11:40:04.127Z,28.02
2022-08-30T11:42:42.992Z,28.03
2022-08-30T11:45:54.869Z,27.83
2022-08-30T11:48:53.815Z,27.92
2022-08-30T11:51:58.040Z,27.50
2022-08-30T11:54:37.663Z,27.23
2022-08-30T11:57:18.689Z,27.45
2022-08-30T11:59:59.428Z,27.38
2022-08-30T12:02:55.882Z,27.49
2022-08-30T12:05:54.553Z,27.25
2022-08-30T12:08:47.771Z,26.96
2022-08-30T12:12:04.756Z,26.94
2022-08-30T12:14:54.699Z,27.21
2022-08-30T12:17:47.866Z,27.38
2022-08-30T12:20:24.852Z,26.95
2022-08-30T12:22:54.543Z,27.04
2022-08-30T12:25:32.352Z,26.95
2022-08-30T12:28:11.538Z,27.20
2022-08-30T12:30:40.928Z,27.28
2022-08-30T12:33:14.187Z,27.01
2022-08-30T12:35:45.434Z,27.27
2022-08-30T12:38:19.541Z,27.34
2022-08-30T12:40:58.831Z,27.07
2022-08-30T12:43:33.171Z,26.68
2022-08-30T12:46:12.518Z,26.72
2022-08-30T12:48:44.564Z,27.02
2022-08-30T12:51:29.095Z,27.21
2022-08-30T12:54:06.880Z,27.35
2022-08-30T12:56:51.252Z,27.48
2022-08-30T12:59:52.898Z,27.38
2022-08-30T13:02:26.236Z,27.14
2022-08-30T13:04:56.466Z,26.86
2022-08-30T13:07:37.096Z,27.20
2022-08-30T13:10:15.309Z,26.95
2022-08-30T13:13:02.326Z,26.67
2022-08-30T13:15:33.790Z,26.68
2022-08-30T13:18:27.022Z,26.65
2022-08-30T13:21:11.471Z,26.43
2022-08-30T13:23:42.212Z,26.60
2022-08-30T13:26:11.435Z,26.34
2022-08-30T13:28:51.104Z,26.64
2022-08-30T13:31:19.605Z,26.85
2022-08-30T13:33:47.816Z,26.95
2022-08-30T13:36:16.360Z,26.82
2022-08-30T13:38:45.987Z,26.87
2022-08-30T13:41:14.704Z,26.96
2022-08-30T13:46:31.111Z,26.42
2022-08-30T13:49:04.867Z,26.41
2022-08-30T13:51:33.638Z,26.66
2022-08-30T13:54:04.690Z,26.87
2022-08-30T13:56:33.345Z,26.70
2022-08-30T13:59:03.815Z,26.51
2022-08-30T14:02:07.439Z,26.32
2022-08-30T14:04:22.360Z,26.16
2022-08-30T14:09:40.481Z,26.39
2022-08-30T14:12:09.548Z,26.47
2022-08-30T14:14:43.006Z,26.37
2022-08-30T14:17:12.489Z,26.28
2022-08-30T14:19:40.971Z,26.33
2022-08-30T14:22:09.166Z,26.55
2022-08-30T14:24:37.400Z,26.12
2022-08-30T14:27:07.021Z,26.16
2022-08-30T14:29:36.178Z,26.37
2022-08-30T14:32:06.007Z,26.42
2022-08-30T14:34:34.337Z,26.33
2022-08-30T14:37:03.013Z,26.28
2022-08-30T14:39:32.620Z,26.39
2022-08-30T14:42:04.300Z,26.27
2022-08-30T14:44:55.224Z,26.02
2022-08-30T14:47:29.638Z,26.16
2022-08-30T14:50:00.953Z,26.18
2022-08-30T14:52:29.696Z,26.10
2022-08-30T14:55:05.250Z,26.21
2022-08-30T14:57:38.309Z,26.23
2022-08-30T15:00:11.875Z,26.19
2022-08-30T15:02:40.795Z,26.03
2022-08-30T15:05:09.739Z,25.97
2022-08-30T15:07:37.986Z,25.93
2022-08-30T15:10:08.505Z,25.86
2022-08-30T15:12:36.729Z,25.81
2022-08-30T15:15:05.304Z,25.70
2022-08-30T15:17:35.502Z,25.64
2022-08-30T15:20:10.303Z,25.74
2022-08-30T15:22:39.097Z,25.58
2022-08-30T15:25:10.166Z,25.64
2022-08-30T15:27:38.416Z,25.62
2022-08-30T15:30:08.407Z,25.79
2022-08-30T15:32:40.659Z,25.61
2022-08-30T15:35:09.856Z,25.67
2022-08-30T15:37:38.518Z,25.67
2022-08-30T15:40:08.506Z,25.79
2022-08-30T15:42:36.735Z,25.68
2022-08-30T15:45:05.704Z,25.43
2022-08-30T15:47:34.598Z,25.56
2022-08-30T15:50:07.145Z,25.38
2022-08-30T15:52:35.800Z,25.48
2022-08-30T15:55:06.414Z,25.29
2022-08-30T15:57:34.574Z,25.37
2022-08-30T16:00:05.902Z,25.26
2022-08-30T16:02:35.083Z,25.10
2022-08-30T16:05:05.897Z,25.23
2022-08-30T16:07:38.616Z,25.00
2022-08-30T16:10:10.689Z,24.91
2022-08-30T16:12:39.008Z,24.97
2022-08-30T16:15:08.008Z,24.93
2022-08-30T16:17:36.999Z,24.77
2022-08-30T16:20:11.817Z,24.70
2022-08-30T16:22:40.092Z,24.68
2022-08-30T16:25:14.263Z,24.67
2022-08-30T16:27:44.151Z,24.75
2022-08-30T16:30:13.424Z,24.75
2022-08-30T16:32:41.631Z,24.74
2022-08-30T16:35:12.577Z,24.59
2022-08-30T16:37:40.746Z,24.54
2022-08-30T16:40:11.406Z,24.48
2022-08-30T16:42:39.674Z,24.48
2022-08-30T16:45:10.263Z,24.49
2022-08-30T16:47:39.196Z,24.38
2022-08-30T16:50:08.538Z,24.33
2022-08-30T16:52:42.323Z,24.38
2022-08-30T16:55:12.313Z,24.38
2022-08-30T16:57:41.250Z,24.46
2022-08-30T17:00:13.787Z,24.64
2022-08-30T17:02:45.334Z,24.55
2022-08-30T17:05:22.224Z,24.48
2022-08-30T17:07:53.040Z,24.48
2022-08-30T17:10:26.244Z,24.88
2022-08-30T17:12:59.954Z,24.64
2022-08-30T17:15:28.319Z,24.50
2022-08-30T17:17:57.461Z,24.34
2022-08-30T17:20:26.930Z,24.34
2022-08-30T17:22:56.550Z,24.22
2022-08-30T17:25:25.818Z,24.20
2022-08-30T17:27:57.901Z,23.97
2022-08-30T17:30:26.047Z,23.95
2022-08-30T17:32:54.709Z,24.05
2022-08-30T17:35:24.195Z,24.00
2022-08-30T17:37:53.799Z,24.07
2022-08-30T17:40:23.567Z,23.97
2022-08-30T17:42:53.060Z,24.01
2022-08-30T17:45:21.697Z,23.92
2022-08-30T17:47:50.388Z,23.76
2022-08-30T17:50:19.390Z,23.75
2022-08-30T17:52:48.146Z,24.02
2022-08-30T17:55:16.410Z,24.08
2022-08-30T17:57:47.297Z,24.11
2022-08-30T18:00:20.261Z,23.89
2022-08-30T18:02:49.679Z,23.85
2022-08-30T18:05:17.966Z,23.76
2022-08-30T18:07:52.858Z,23.59
2022-08-30T18:10:28.472Z,23.57
2022-08-30T18:13:02.510Z,23.50
2022-08-30T18:15:30.988Z,23.74
2022-08-30T18:17:59.086Z,23.67
2022-08-30T18:20:27.738Z,23.52
2022-08-30T18:22:59.601Z,23.52
2022-08-30T18:25:27.751Z,23.46
2022-08-30T18:27:58.182Z,23.33
2022-08-30T18:30:33.992Z,23.59
2022-08-30T18:33:06.807Z,23.61
2022-08-30T18:35:35.042Z,23.56
2022-08-30T18:38:04.742Z,23.51
2022-08-30T18:40:33.003Z,23.39
2022-08-30T18:43:07.954Z,23.43
2022-08-30T18:45:38.823Z,23.38
2022-08-30T18:48:07.374Z,23.43
2022-08-30T18:50:36.323Z,23.41
2022-08-30T18:53:04.719Z,23.34
2022-08-30T18:55:37.171Z,23.30
2022-08-30T18:58:08.764Z,23.30
2022-08-30T19:00:40.859Z,23.38
2022-08-30T19:03:09.076Z,23.36
2022-08-30T19:05:38.921Z,23.35
2022-08-30T19:08:08.017Z,23.31
2022-08-30T19:10:37.660Z,23.32
2022-08-30T19:13:06.033Z,23.42
2022-08-30T19:15:35.577Z,23.33
2022-08-30T19:18:16.766Z,23.34
2022-08-30T19:20:47.448Z,23.37
2022-08-30T19:23:16.119Z,23.30
2022-08-30T19:25:45.419Z,23.34
2022-08-30T19:28:20.592Z,23.41
2022-08-30T19:30:48.887Z,23.44
2022-08-30T19:33:19.816Z,23.47
2022-08-30T19:35:51.149Z,23.48
2022-08-30T19:38:19.782Z,23.43
2022-08-30T19:40:52.473Z,23.40
2022-08-30T19:43:22.776Z,23.31
2022-08-30T19:45:55.309Z,23.30
2022-08-30T19:48:31.998Z,23.41
2022-08-30T19:51:01.580Z,23.36
2022-08-30T19:53:29.822Z,23.32
2022-08-30T19:55:58.046Z,23.38
2022-08-30T19:58:26.235Z,23.43
2022-08-30T20:01:01.145Z,23.45
2022-08-30T20:03:41.588Z,23.46
2022-08-30T20:06:10.098Z,23.43
2022-08-30T20:08:38.595Z,23.38
2022-08-30T20:11:07.995Z,23.37
2022-08-30T20:13:37.314Z,23.32
2022-08-30T20:16:06.265Z,23.31
2022-08-30T20:18:34.453Z,23.25
2022-08-30T20:21:04.533Z,23.26
2022-08-30T20:23:42.139Z,23.34
2022-08-30T20:26:11.933Z,23.39
2022-08-30T20:28:40.800Z,23.43
2022-08-30T20:31:12.122Z,23.36
2022-08-30T20:33:41.186Z,23.21
2022-08-30T20:36:11.724Z,23.20
2022-08-30T20:38:40.586Z,23.23
2022-08-30T20:41:11.750Z,23.23
2022-08-30T20:43:40.366Z,23.23
2022-08-30T20:46:09.662Z,23.16
2022-08-30T20:48:38.255Z,23.13
2022-08-30T20:51:12.086Z,23.10
2022-08-30T20:53:40.419Z,23.11
2022-08-30T20:56:13.262Z,23.09
2022-08-30T20:58:43.055Z,23.08
2022-08-30T21:01:13.267Z,23.03
2022-08-30T21:03:42.626Z,23.00
2022-08-30T21:06:12.827Z,23.07
2022-08-30T21:08:41.308Z,23.01
2022-08-30T21:11:10.083Z,22.97
2022-08-30T21:13:39.026Z,22.92
2022-08-30T21:16:07.919Z,22.91
2022-08-30T21:18:38.239Z,22.88
2022-08-30T21:21:12.190Z,22.88
2022-08-30T21:23:40.632Z,22.85
2022-08-30T21:26:09.903Z,22.81
2022-08-30T21:28:38.824Z,22.78
2022-08-30T21:31:09.045Z,22.75
2022-08-30T21:33:37.684Z,22.71
2022-08-30T21:36:23.921Z,22.62
2022-08-30T21:38:54.720Z,22.72
2022-08-30T21:41:30.217Z,22.73
2022-08-30T21:43:59.556Z,22.66
2022-08-30T21:46:29.485Z,22.47
2022-08-30T21:49:01.166Z,22.51
2022-08-30T21:51:30.202Z,22.59
2022-08-30T21:54:01.142Z,22.57
2022-08-30T21:56:29.942Z,22.63
2022-08-30T21:58:58.376Z,22.56
2022-08-30T22:01:28.849Z,22.51
2022-08-30T22:03:58.869Z,22.48
2022-08-30T22:06:31.002Z,22.47
2022-08-30T22:09:02.622Z,22.47
2022-08-30T22:11:32.950Z,22.45
2022-08-30T22:14:02.050Z,22.46
2022-08-30T22:16:30.535Z,22.44
2022-08-30T22:18:58.978Z,22.48
2022-08-30T22:21:29.924Z,22.39
2022-08-30T22:23:58.482Z,22.46
2022-08-30T22:26:28.544Z,22.35
2022-08-30T22:28:57.021Z,22.34
2022-08-30T22:31:26.503Z,22.32
2022-08-30T22:33:55.807Z,22.31
2022-08-30T22:36:32.389Z,22.36
2022-08-30T22:39:03.014Z,22.30
2022-08-30T22:41:34.125Z,22.36
2022-08-30T22:44:02.543Z,22.31
2022-08-30T22:46:33.890Z,22.37
2022-08-30T22:49:03.515Z,22.43
2022-08-30T22:51:31.717Z,22.44
2022-08-30T22:54:01.306Z,22.43
2022-08-30T22:56:30.901Z,22.40
2022-08-30T22:59:00.389Z,22.38
2022-08-30T23:01:31.165Z,22.39
2022-08-30T23:04:01.186Z,22.50
2022-08-30T23:06:30.314Z,22.39
2022-08-30T23:08:58.517Z,22.39
2022-08-30T23:11:27.450Z,22.50
2022-08-30T23:13:55.888Z,22.53
2022-08-30T23:16:25.491Z,22.60
2022-08-30T23:18:53.822Z,22.52
2022-08-30T23:21:26.117Z,22.42
2022-08-30T23:24:13.128Z,22.28
2022-08-30T23:26:59.611Z,22.34
2022-08-30T23:29:45.973Z,22.26
2022-08-30T23:32:33.151Z,22.21
2022-08-30T23:35:18.648Z,22.25
2022-08-30T23:38:05.557Z,22.22
2022-08-30T23:40:51.090Z,22.27
2022-08-30T23:43:36.526Z,22.26
2022-08-30T23:46:22.260Z,22.27
2022-08-30T23:49:09.372Z,22.29
2022-08-30T23:51:56.211Z,22.30
2022-08-30T23:54:42.472Z,22.26
2022-08-30T23:57:28.344Z,22.33
